sensor_id;sensor_type;location;lat;lon;timestamp;P1;durP1;ratioP1;P2;durP2;ratioP2
74904;SDS011;63465;50.862;6.220;2023-11-21T00:02:01;23.60;;;11.93;;
74904;SDS011;63465;50.862;6.220;2023-11-21T00:04:26;19.80;;;11.30;;
74904;SDS011;63465;50.862;6.220;2023-11-21T00:06:52;21.90;;;12.00;;
74904;SDS011;63465;50.862;6.220;2023-11-21T00:09:18;24.30;;;13.50;;
74904;SDS011;63465;50.862;6.220;2023-11-21T00:11:44;27.17;;;12.23;;
74904;SDS011;63465;50.862;6.220;2023-11-21T00:14:13;22.97;;;12.57;;
74904;SDS011;63465;50.862;6.220;2023-11-21T00:16:40;20.40;;;10.37;;
74904;SDS011;63465;50.862;6.220;2023-11-21T00:19:06;22.17;;;11.57;;
74904;SDS011;63465;50.862;6.220;2023-11-21T00:21:31;20.63;;;10.50;;
74904;SDS011;63465;50.862;6.220;2023-11-21T00:23:56;26.13;;;11.70;;
74904;SDS011;63465;50.862;6.220;2023-11-21T00:26:21;21.63;;;11.47;;
74904;SDS011;63465;50.862;6.220;2023-11-21T00:28:47;20.27;;;11.80;;
74904;SDS011;63465;50.862;6.220;2023-11-21T00:31:12;19.97;;;11.73;;
74904;SDS011;63465;50.862;6.220;2023-11-21T00:33:38;20.17;;;12.50;;
74904;SDS011;63465;50.862;6.220;2023-11-21T00:36:04;26.50;;;12.60;;
74904;SDS011;63465;50.862;6.220;2023-11-21T00:38:31;23.20;;;12.10;;
74904;SDS011;63465;50.862;6.220;2023-11-21T00:40:56;23.67;;;11.93;;
74904;SDS011;63465;50.862;6.220;2023-11-21T00:43:22;25.00;;;12.67;;
74904;SDS011;63465;50.862;6.220;2023-11-21T00:45:48;20.87;;;12.10;;
74904;SDS011;63465;50.862;6.220;2023-11-21T00:48:14;23.13;;;12.90;;
74904;SDS011;63465;50.862;6.220;2023-11-21T00:50:39;25.30;;;13.93;;
74904;SDS011;63465;50.862;6.220;2023-11-21T00:53:04;29.97;;;12.70;;
74904;SDS011;63465;50.862;6.220;2023-11-21T00:55:30;27.00;;;12.80;;
74904;SDS011;63465;50.862;6.220;2023-11-21T00:57:55;27.37;;;12.87;;
74904;SDS011;63465;50.862;6.220;2023-11-21T01:00:20;23.73;;;12.93;;
74904;SDS011;63465;50.862;6.220;2023-11-21T01:02:46;25.57;;;13.17;;
74904;SDS011;63465;50.862;6.220;2023-11-21T01:05:12;23.87;;;11.97;;
74904;SDS011;63465;50.862;6.220;2023-11-21T01:07:37;20.00;;;10.70;;
74904;SDS011;63465;50.862;6.220;2023-11-21T01:10:03;18.80;;;10.53;;
74904;SDS011;63465;50.862;6.220;2023-11-21T01:12:32;24.77;;;11.43;;
74904;SDS011;63465;50.862;6.220;2023-11-21T01:14:57;15.67;;;9.40;;
74904;SDS011;63465;50.862;6.220;2023-11-21T01:17:25;17.57;;;10.17;;
74904;SDS011;63465;50.862;6.220;2023-11-21T01:19:51;19.23;;;10.87;;
74904;SDS011;63465;50.862;6.220;2023-11-21T01:22:16;22.03;;;9.70;;
74904;SDS011;63465;50.862;6.220;2023-11-21T01:24:42;17.70;;;9.77;;
74904;SDS011;63465;50.862;6.220;2023-11-21T01:27:08;20.40;;;10.20;;
74904;SDS011;63465;50.862;6.220;2023-11-21T01:29:33;21.27;;;10.10;;
74904;SDS011;63465;50.862;6.220;2023-11-21T01:32:00;19.80;;;10.53;;
74904;SDS011;63465;50.862;6.220;2023-11-21T01:34:27;15.47;;;9.80;;
74904;SDS011;63465;50.862;6.220;2023-11-21T01:36:52;16.87;;;8.80;;
74904;SDS011;63465;50.862;6.220;2023-11-21T01:39:17;18.57;;;9.37;;
74904;SDS011;63465;50.862;6.220;2023-11-21T01:41:48;16.80;;;8.30;;
74904;SDS011;63465;50.862;6.220;2023-11-21T01:44:13;15.57;;;8.27;;
74904;SDS011;63465;50.862;6.220;2023-11-21T01:46:39;14.30;;;8.30;;
74904;SDS011;63465;50.862;6.220;2023-11-21T01:49:05;17.07;;;8.80;;
74904;SDS011;63465;50.862;6.220;2023-11-21T01:51:30;16.03;;;8.90;;
74904;SDS011;63465;50.862;6.220;2023-11-21T01:53:56;16.40;;;9.40;;
74904;SDS011;63465;50.862;6.220;2023-11-21T01:56:21;21.83;;;9.30;;
74904;SDS011;63465;50.862;6.220;2023-11-21T01:58:47;16.53;;;8.97;;
74904;SDS011;63465;50.862;6.220;2023-11-21T02:01:12;17.70;;;9.13;;
74904;SDS011;63465;50.862;6.220;2023-11-21T02:03:39;18.20;;;9.40;;
74904;SDS011;63465;50.862;6.220;2023-11-21T02:06:05;16.10;;;8.73;;
74904;SDS011;63465;50.862;6.220;2023-11-21T02:08:30;16.20;;;9.30;;
74904;SDS011;63465;50.862;6.220;2023-11-21T02:10:56;23.40;;;11.00;;
74904;SDS011;63465;50.862;6.220;2023-11-21T02:13:22;19.00;;;9.67;;
74904;SDS011;63465;50.862;6.220;2023-11-21T02:15:47;20.87;;;9.33;;
74904;SDS011;63465;50.862;6.220;2023-11-21T02:18:14;18.50;;;9.20;;
74904;SDS011;63465;50.862;6.220;2023-11-21T02:20:40;21.97;;;9.73;;
74904;SDS011;63465;50.862;6.220;2023-11-21T02:23:07;20.33;;;9.50;;
74904;SDS011;63465;50.862;6.220;2023-11-21T02:25:33;21.10;;;10.03;;
74904;SDS011;63465;50.862;6.220;2023-11-21T02:28:02;21.80;;;10.90;;
74904;SDS011;63465;50.862;6.220;2023-11-21T02:30:28;19.13;;;9.60;;
74904;SDS011;63465;50.862;6.220;2023-11-21T02:32:54;23.30;;;11.77;;
74904;SDS011;63465;50.862;6.220;2023-11-21T02:35:20;20.30;;;10.27;;
74904;SDS011;63465;50.862;6.220;2023-11-21T02:37:46;25.20;;;11.00;;
74904;SDS011;63465;50.862;6.220;2023-11-21T02:40:12;30.10;;;11.90;;
74904;SDS011;63465;50.862;6.220;2023-11-21T02:42:38;25.10;;;11.27;;
74904;SDS011;63465;50.862;6.220;2023-11-21T02:45:04;19.37;;;9.87;;
74904;SDS011;63465;50.862;6.220;2023-11-21T02:47:31;21.37;;;10.80;;
74904;SDS011;63465;50.862;6.220;2023-11-21T02:49:56;23.90;;;11.57;;
74904;SDS011;63465;50.862;6.220;2023-11-21T02:52:21;18.10;;;10.37;;
74904;SDS011;63465;50.862;6.220;2023-11-21T02:54:47;21.90;;;11.40;;
74904;SDS011;63465;50.862;6.220;2023-11-21T02:57:12;23.97;;;12.10;;
74904;SDS011;63465;50.862;6.220;2023-11-21T02:59:38;25.57;;;11.63;;
74904;SDS011;63465;50.862;6.220;2023-11-21T03:02:03;22.70;;;12.07;;
74904;SDS011;63465;50.862;6.220;2023-11-21T03:04:28;28.57;;;11.90;;
74904;SDS011;63465;50.862;6.220;2023-11-21T03:06:54;30.03;;;11.23;;
74904;SDS011;63465;50.862;6.220;2023-11-21T03:09:19;22.90;;;12.17;;
74904;SDS011;63465;50.862;6.220;2023-11-21T03:11:45;28.87;;;12.13;;
74904;SDS011;63465;50.862;6.220;2023-11-21T03:14:10;21.30;;;11.03;;
74904;SDS011;63465;50.862;6.220;2023-11-21T03:16:35;23.90;;;12.20;;
74904;SDS011;63465;50.862;6.220;2023-11-21T03:19:03;25.13;;;11.90;;
74904;SDS011;63465;50.862;6.220;2023-11-21T03:21:28;26.60;;;11.20;;
74904;SDS011;63465;50.862;6.220;2023-11-21T03:23:54;23.70;;;11.40;;
74904;SDS011;63465;50.862;6.220;2023-11-21T03:26:19;26.07;;;12.17;;
74904;SDS011;63465;50.862;6.220;2023-11-21T03:28:45;25.90;;;12.13;;
74904;SDS011;63465;50.862;6.220;2023-11-21T03:31:11;23.50;;;12.43;;
74904;SDS011;63465;50.862;6.220;2023-11-21T03:33:36;25.80;;;12.63;;
74904;SDS011;63465;50.862;6.220;2023-11-21T03:36:01;26.37;;;12.63;;
74904;SDS011;63465;50.862;6.220;2023-11-21T03:38:28;23.00;;;11.53;;
74904;SDS011;63465;50.862;6.220;2023-11-21T03:40:54;28.90;;;12.10;;
74904;SDS011;63465;50.862;6.220;2023-11-21T03:43:19;26.13;;;13.37;;
74904;SDS011;63465;50.862;6.220;2023-11-21T03:45:44;30.57;;;13.70;;
74904;SDS011;63465;50.862;6.220;2023-11-21T03:48:09;22.17;;;13.60;;
74904;SDS011;63465;50.862;6.220;2023-11-21T03:50:37;22.13;;;11.87;;
74904;SDS011;63465;50.862;6.220;2023-11-21T03:53:03;27.77;;;13.50;;
74904;SDS011;63465;50.862;6.220;2023-11-21T03:55:29;27.27;;;13.53;;
74904;SDS011;63465;50.862;6.220;2023-11-21T03:57:56;27.63;;;13.43;;
74904;SDS011;63465;50.862;6.220;2023-11-21T04:00:22;27.20;;;13.53;;
74904;SDS011;63465;50.862;6.220;2023-11-21T04:02:47;24.17;;;13.10;;
74904;SDS011;63465;50.862;6.220;2023-11-21T04:05:12;23.07;;;12.37;;
74904;SDS011;63465;50.862;6.220;2023-11-21T04:07:38;23.83;;;13.00;;
74904;SDS011;63465;50.862;6.220;2023-11-21T04:10:04;25.00;;;12.73;;
74904;SDS011;63465;50.862;6.220;2023-11-21T04:12:33;25.60;;;12.67;;
74904;SDS011;63465;50.862;6.220;2023-11-21T04:14:58;30.70;;;13.70;;
74904;SDS011;63465;50.862;6.220;2023-11-21T04:17:24;23.73;;;11.80;;
74904;SDS011;63465;50.862;6.220;2023-11-21T04:19:49;24.27;;;12.80;;
74904;SDS011;63465;50.862;6.220;2023-11-21T04:22:14;26.30;;;12.30;;
74904;SDS011;63465;50.862;6.220;2023-11-21T04:24:39;25.83;;;12.10;;
74904;SDS011;63465;50.862;6.220;2023-11-21T04:27:05;31.20;;;13.97;;
74904;SDS011;63465;50.862;6.220;2023-11-21T04:29:30;24.87;;;12.47;;
74904;SDS011;63465;50.862;6.220;2023-11-21T04:31:56;26.40;;;12.17;;
74904;SDS011;63465;50.862;6.220;2023-11-21T04:34:21;30.57;;;12.67;;
74904;SDS011;63465;50.862;6.220;2023-11-21T04:36:46;27.73;;;12.20;;
74904;SDS011;63465;50.862;6.220;2023-11-21T04:39:11;28.03;;;12.53;;
74904;SDS011;63465;50.862;6.220;2023-11-21T04:41:37;28.47;;;11.97;;
74904;SDS011;63465;50.862;6.220;2023-11-21T04:44:04;26.57;;;12.60;;
74904;SDS011;63465;50.862;6.220;2023-11-21T04:46:30;34.93;;;11.57;;
74904;SDS011;63465;50.862;6.220;2023-11-21T04:48:56;26.47;;;12.77;;
74904;SDS011;63465;50.862;6.220;2023-11-21T04:51:22;30.47;;;12.80;;
74904;SDS011;63465;50.862;6.220;2023-11-21T04:53:47;28.60;;;12.23;;
74904;SDS011;63465;50.862;6.220;2023-11-21T04:56:12;28.57;;;12.17;;
74904;SDS011;63465;50.862;6.220;2023-11-21T04:58:38;30.43;;;12.47;;
74904;SDS011;63465;50.862;6.220;2023-11-21T05:01:04;25.77;;;11.60;;
74904;SDS011;63465;50.862;6.220;2023-11-21T05:03:30;29.20;;;11.73;;
74904;SDS011;63465;50.862;6.220;2023-11-21T05:05:56;21.60;;;10.33;;
74904;SDS011;63465;50.862;6.220;2023-11-21T05:08:21;29.57;;;12.20;;
74904;SDS011;63465;50.862;6.220;2023-11-21T05:10:47;31.53;;;12.27;;
74904;SDS011;63465;50.862;6.220;2023-11-21T05:13:13;26.27;;;11.07;;
74904;SDS011;63465;50.862;6.220;2023-11-21T05:15:42;24.87;;;11.47;;
74904;SDS011;63465;50.862;6.220;2023-11-21T05:18:07;24.57;;;11.70;;
74904;SDS011;63465;50.862;6.220;2023-11-21T05:20:32;27.40;;;10.90;;
74904;SDS011;63465;50.862;6.220;2023-11-21T05:22:58;26.67;;;12.00;;
74904;SDS011;63465;50.862;6.220;2023-11-21T05:25:23;27.60;;;10.80;;
74904;SDS011;63465;50.862;6.220;2023-11-21T05:27:49;32.47;;;11.83;;
74904;SDS011;63465;50.862;6.220;2023-11-21T05:30:14;35.77;;;12.40;;
74904;SDS011;63465;50.862;6.220;2023-11-21T05:32:40;27.60;;;11.37;;
74904;SDS011;63465;50.862;6.220;2023-11-21T05:35:09;27.43;;;13.00;;
74904;SDS011;63465;50.862;6.220;2023-11-21T05:37:40;33.17;;;11.70;;
74904;SDS011;63465;50.862;6.220;2023-11-21T05:40:06;27.20;;;11.27;;
74904;SDS011;63465;50.862;6.220;2023-11-21T05:42:33;30.00;;;11.80;;
74904;SDS011;63465;50.862;6.220;2023-11-21T05:44:59;22.50;;;10.00;;
74904;SDS011;63465;50.862;6.220;2023-11-21T05:47:24;28.50;;;10.83;;
74904;SDS011;63465;50.862;6.220;2023-11-21T05:49:51;25.50;;;10.73;;
74904;SDS011;63465;50.862;6.220;2023-11-21T05:52:17;23.80;;;10.33;;
74904;SDS011;63465;50.862;6.220;2023-11-21T05:54:42;23.73;;;10.50;;
74904;SDS011;63465;50.862;6.220;2023-11-21T05:57:08;35.70;;;11.20;;
74904;SDS011;63465;50.862;6.220;2023-11-21T05:59:33;24.73;;;10.60;;
74904;SDS011;63465;50.862;6.220;2023-11-21T06:01:59;23.60;;;11.03;;
74904;SDS011;63465;50.862;6.220;2023-11-21T06:04:24;29.13;;;10.80;;
74904;SDS011;63465;50.862;6.220;2023-11-21T06:06:50;27.43;;;10.30;;
74904;SDS011;63465;50.862;6.220;2023-11-21T06:09:16;25.67;;;11.20;;
74904;SDS011;63465;50.862;6.220;2023-11-21T06:11:41;21.90;;;9.80;;
74904;SDS011;63465;50.862;6.220;2023-11-21T06:14:07;31.37;;;10.93;;
74904;SDS011;63465;50.862;6.220;2023-11-21T06:16:34;25.10;;;10.20;;
74904;SDS011;63465;50.862;6.220;2023-11-21T06:18:59;29.77;;;10.80;;
74904;SDS011;63465;50.862;6.220;2023-11-21T06:21:25;21.90;;;10.50;;
74904;SDS011;63465;50.862;6.220;2023-11-21T06:23:50;21.40;;;11.27;;
74904;SDS011;63465;50.862;6.220;2023-11-21T06:26:17;27.40;;;12.70;;
74904;SDS011;63465;50.862;6.220;2023-11-21T06:28:43;26.67;;;11.27;;
74904;SDS011;63465;50.862;6.220;2023-11-21T06:31:09;24.90;;;11.33;;
74904;SDS011;63465;50.862;6.220;2023-11-21T06:33:35;32.07;;;11.87;;
74904;SDS011;63465;50.862;6.220;2023-11-21T06:36:01;22.47;;;10.73;;
74904;SDS011;63465;50.862;6.220;2023-11-21T06:38:27;28.60;;;10.70;;
74904;SDS011;63465;50.862;6.220;2023-11-21T06:40:55;27.47;;;12.07;;
74904;SDS011;63465;50.862;6.220;2023-11-21T06:43:20;27.57;;;11.70;;
74904;SDS011;63465;50.862;6.220;2023-11-21T06:45:46;29.67;;;13.20;;
74904;SDS011;63465;50.862;6.220;2023-11-21T06:48:12;25.30;;;11.53;;
74904;SDS011;63465;50.862;6.220;2023-11-21T06:50:37;29.13;;;12.37;;
74904;SDS011;63465;50.862;6.220;2023-11-21T06:53:02;35.53;;;12.77;;
74904;SDS011;63465;50.862;6.220;2023-11-21T06:55:31;30.43;;;12.10;;
74904;SDS011;63465;50.862;6.220;2023-11-21T06:57:57;30.50;;;11.80;;
74904;SDS011;63465;50.862;6.220;2023-11-21T07:00:23;27.10;;;12.80;;
74904;SDS011;63465;50.862;6.220;2023-11-21T07:02:48;31.20;;;13.03;;
74904;SDS011;63465;50.862;6.220;2023-11-21T07:05:14;33.87;;;14.73;;
74904;SDS011;63465;50.862;6.220;2023-11-21T07:07:40;35.50;;;14.33;;
74904;SDS011;63465;50.862;6.220;2023-11-21T07:10:05;33.57;;;12.90;;
74904;SDS011;63465;50.862;6.220;2023-11-21T07:12:33;29.43;;;13.07;;
74904;SDS011;63465;50.862;6.220;2023-11-21T07:14:59;38.40;;;13.57;;
74904;SDS011;63465;50.862;6.220;2023-11-21T07:17:24;32.83;;;12.80;;
74904;SDS011;63465;50.862;6.220;2023-11-21T07:19:49;33.23;;;14.57;;
74904;SDS011;63465;50.862;6.220;2023-11-21T07:22:15;42.63;;;13.90;;
74904;SDS011;63465;50.862;6.220;2023-11-21T07:24:46;49.33;;;15.13;;
74904;SDS011;63465;50.862;6.220;2023-11-21T07:27:13;34.80;;;14.37;;
74904;SDS011;63465;50.862;6.220;2023-11-21T07:29:38;36.37;;;15.17;;
74904;SDS011;63465;50.862;6.220;2023-11-21T07:32:04;41.53;;;14.97;;
74904;SDS011;63465;50.862;6.220;2023-11-21T07:34:30;40.30;;;15.13;;
74904;SDS011;63465;50.862;6.220;2023-11-21T07:36:55;37.20;;;14.97;;
74904;SDS011;63465;50.862;6.220;2023-11-21T07:39:21;42.87;;;14.50;;
74904;SDS011;63465;50.862;6.220;2023-11-21T07:41:46;42.63;;;15.60;;
74904;SDS011;63465;50.862;6.220;2023-11-21T07:44:13;39.97;;;14.40;;
74904;SDS011;63465;50.862;6.220;2023-11-21T07:46:39;50.00;;;15.43;;
74904;SDS011;63465;50.862;6.220;2023-11-21T07:49:05;41.90;;;14.87;;
74904;SDS011;63465;50.862;6.220;2023-11-21T07:51:30;47.67;;;15.13;;
74904;SDS011;63465;50.862;6.220;2023-11-21T07:53:56;49.60;;;15.50;;
74904;SDS011;63465;50.862;6.220;2023-11-21T07:56:21;49.27;;;16.87;;
74904;SDS011;63465;50.862;6.220;2023-11-21T07:58:47;38.57;;;14.43;;
74904;SDS011;63465;50.862;6.220;2023-11-21T08:01:12;30.13;;;12.33;;
74904;SDS011;63465;50.862;6.220;2023-11-21T08:03:38;47.33;;;15.10;;
74904;SDS011;63465;50.862;6.220;2023-11-21T08:06:03;42.80;;;13.97;;
74904;SDS011;63465;50.862;6.220;2023-11-21T08:08:30;35.90;;;14.27;;
74904;SDS011;63465;50.862;6.220;2023-11-21T08:10:57;46.60;;;13.70;;
74904;SDS011;63465;50.862;6.220;2023-11-21T08:13:26;34.70;;;13.13;;
74904;SDS011;63465;50.862;6.220;2023-11-21T08:15:55;51.60;;;16.10;;
74904;SDS011;63465;50.862;6.220;2023-11-21T08:18:28;50.40;;;13.87;;
74904;SDS011;63465;50.862;6.220;2023-11-21T08:20:57;41.73;;;14.60;;
74904;SDS011;63465;50.862;6.220;2023-11-21T08:23:22;50.87;;;14.37;;
74904;SDS011;63465;50.862;6.220;2023-11-21T08:25:50;50.90;;;13.73;;
74904;SDS011;63465;50.862;6.220;2023-11-21T08:28:16;42.13;;;14.77;;
74904;SDS011;63465;50.862;6.220;2023-11-21T08:30:41;37.13;;;13.00;;
74904;SDS011;63465;50.862;6.220;2023-11-21T08:33:07;38.17;;;13.03;;
74904;SDS011;63465;50.862;6.220;2023-11-21T08:35:33;50.60;;;14.77;;
74904;SDS011;63465;50.862;6.220;2023-11-21T08:37:59;39.07;;;13.10;;
74904;SDS011;63465;50.862;6.220;2023-11-21T08:40:24;50.17;;;13.87;;
74904;SDS011;63465;50.862;6.220;2023-11-21T08:42:50;44.10;;;13.70;;
74904;SDS011;63465;50.862;6.220;2023-11-21T08:45:17;41.10;;;14.00;;
74904;SDS011;63465;50.862;6.220;2023-11-21T08:47:43;40.87;;;13.37;;
74904;SDS011;63465;50.862;6.220;2023-11-21T08:50:09;36.70;;;12.57;;
74904;SDS011;63465;50.862;6.220;2023-11-21T08:52:34;44.67;;;13.13;;
74904;SDS011;63465;50.862;6.220;2023-11-21T08:55:02;38.13;;;14.00;;
74904;SDS011;63465;50.862;6.220;2023-11-21T08:57:32;42.07;;;14.57;;
74904;SDS011;63465;50.862;6.220;2023-11-21T09:00:02;37.10;;;13.27;;
74904;SDS011;63465;50.862;6.220;2023-11-21T09:02:42;47.00;;;13.73;;
74904;SDS011;63465;50.862;6.220;2023-11-21T09:05:08;42.70;;;13.47;;
74904;SDS011;63465;50.862;6.220;2023-11-21T09:07:34;40.23;;;13.57;;
74904;SDS011;63465;50.862;6.220;2023-11-21T09:10:00;48.03;;;13.30;;
74904;SDS011;63465;50.862;6.220;2023-11-21T09:12:26;48.80;;;14.37;;
74904;SDS011;63465;50.862;6.220;2023-11-21T09:14:52;45.47;;;13.23;;
74904;SDS011;63465;50.862;6.220;2023-11-21T09:17:17;61.77;;;15.70;;
74904;SDS011;63465;50.862;6.220;2023-11-21T09:19:43;45.20;;;14.70;;
74904;SDS011;63465;50.862;6.220;2023-11-21T09:22:12;49.57;;;14.10;;
74904;SDS011;63465;50.862;6.220;2023-11-21T09:24:37;40.13;;;13.77;;
74904;SDS011;63465;50.862;6.220;2023-11-21T09:27:02;36.77;;;13.17;;
74904;SDS011;63465;50.862;6.220;2023-11-21T09:29:30;46.90;;;13.17;;
74904;SDS011;63465;50.862;6.220;2023-11-21T09:31:55;42.63;;;13.53;;
74904;SDS011;63465;50.862;6.220;2023-11-21T09:34:24;41.77;;;13.90;;
74904;SDS011;63465;50.862;6.220;2023-11-21T09:36:50;37.67;;;13.30;;
74904;SDS011;63465;50.862;6.220;2023-11-21T09:39:16;34.00;;;12.80;;
74904;SDS011;63465;50.862;6.220;2023-11-21T09:41:52;45.13;;;14.33;;
74904;SDS011;63465;50.862;6.220;2023-11-21T09:44:42;39.80;;;14.20;;
74904;SDS011;63465;50.862;6.220;2023-11-21T09:47:16;33.80;;;13.07;;
74904;SDS011;63465;50.862;6.220;2023-11-21T09:49:43;37.37;;;13.23;;
74904;SDS011;63465;50.862;6.220;2023-11-21T09:52:12;30.60;;;11.80;;
74904;SDS011;63465;50.862;6.220;2023-11-21T09:54:47;35.93;;;13.07;;
74904;SDS011;63465;50.862;6.220;2023-11-21T09:57:15;42.53;;;15.30;;
74904;SDS011;63465;50.862;6.220;2023-11-21T09:59:40;35.40;;;13.23;;
74904;SDS011;63465;50.862;6.220;2023-11-21T10:02:07;35.20;;;14.57;;
74904;SDS011;63465;50.862;6.220;2023-11-21T10:04:37;37.60;;;14.17;;
74904;SDS011;63465;50.862;6.220;2023-11-21T10:07:03;33.67;;;13.00;;
74904;SDS011;63465;50.862;6.220;2023-11-21T10:09:31;44.77;;;14.13;;
74904;SDS011;63465;50.862;6.220;2023-11-21T10:11:57;45.47;;;14.23;;
74904;SDS011;63465;50.862;6.220;2023-11-21T10:14:25;37.77;;;14.30;;
74904;SDS011;63465;50.862;6.220;2023-11-21T10:16:53;38.17;;;12.67;;
74904;SDS011;63465;50.862;6.220;2023-11-21T10:19:21;31.07;;;12.03;;
74904;SDS011;63465;50.862;6.220;2023-11-21T10:21:48;34.57;;;12.33;;
74904;SDS011;63465;50.862;6.220;2023-11-21T10:24:16;33.67;;;12.73;;
74904;SDS011;63465;50.862;6.220;2023-11-21T10:26:43;36.00;;;14.97;;
74904;SDS011;63465;50.862;6.220;2023-11-21T10:29:08;27.00;;;11.43;;
74904;SDS011;63465;50.862;6.220;2023-11-21T10:31:37;26.07;;;10.10;;
74904;SDS011;63465;50.862;6.220;2023-11-21T10:34:12;31.03;;;11.43;;
74904;SDS011;63465;50.862;6.220;2023-11-21T10:36:38;27.20;;;11.97;;
74904;SDS011;63465;50.862;6.220;2023-11-21T10:39:03;36.20;;;16.90;;
74904;SDS011;63465;50.862;6.220;2023-11-21T10:41:28;33.30;;;11.97;;
74904;SDS011;63465;50.862;6.220;2023-11-21T10:43:54;71.27;;;35.10;;
74904;SDS011;63465;50.862;6.220;2023-11-21T10:46:21;44.23;;;15.43;;
74904;SDS011;63465;50.862;6.220;2023-11-21T10:48:51;36.13;;;14.67;;
74904;SDS011;63465;50.862;6.220;2023-11-21T10:51:18;31.23;;;12.60;;
74904;SDS011;63465;50.862;6.220;2023-11-21T10:53:45;38.63;;;17.20;;
74904;SDS011;63465;50.862;6.220;2023-11-21T10:56:10;37.20;;;13.37;;
74904;SDS011;63465;50.862;6.220;2023-11-21T10:58:42;37.43;;;13.57;;
74904;SDS011;63465;50.862;6.220;2023-11-21T11:01:08;27.90;;;12.10;;
74904;SDS011;63465;50.862;6.220;2023-11-21T11:03:36;23.97;;;10.33;;
74904;SDS011;63465;50.862;6.220;2023-11-21T11:06:03;22.10;;;11.10;;
74904;SDS011;63465;50.862;6.220;2023-11-21T11:08:30;30.90;;;12.17;;
74904;SDS011;63465;50.862;6.220;2023-11-21T11:10:56;23.60;;;10.63;;
74904;SDS011;63465;50.862;6.220;2023-11-21T11:13:23;25.10;;;9.90;;
74904;SDS011;63465;50.862;6.220;2023-11-21T11:15:49;25.43;;;10.70;;
74904;SDS011;63465;50.862;6.220;2023-11-21T11:18:15;26.20;;;11.73;;
74904;SDS011;63465;50.862;6.220;2023-11-21T11:20:41;26.97;;;10.90;;
74904;SDS011;63465;50.862;6.220;2023-11-21T11:31:55;24.17;;;10.43;;
74904;SDS011;63465;50.862;6.220;2023-11-21T11:34:35;22.53;;;10.07;;
74904;SDS011;63465;50.862;6.220;2023-11-21T11:37:06;28.67;;;11.20;;
74904;SDS011;63465;50.862;6.220;2023-11-21T11:42:23;24.57;;;10.57;;
74904;SDS011;63465;50.862;6.220;2023-11-21T11:44:49;25.07;;;10.27;;
74904;SDS011;63465;50.862;6.220;2023-11-21T11:47:16;24.80;;;9.47;;
74904;SDS011;63465;50.862;6.220;2023-11-21T11:50:04;30.93;;;8.73;;
74904;SDS011;63465;50.862;6.220;2023-11-21T11:52:45;20.63;;;8.90;;
74904;SDS011;63465;50.862;6.220;2023-11-21T11:55:19;17.57;;;8.33;;
74904;SDS011;63465;50.862;6.220;2023-11-21T11:57:46;19.23;;;7.20;;
74904;SDS011;63465;50.862;6.220;2023-11-21T12:00:17;21.90;;;7.40;;
74904;SDS011;63465;50.862;6.220;2023-11-21T12:02:56;20.73;;;8.23;;
74904;SDS011;63465;50.862;6.220;2023-11-21T12:05:25;18.07;;;7.13;;
74904;SDS011;63465;50.862;6.220;2023-11-21T12:10:22;16.63;;;7.50;;
74904;SDS011;63465;50.862;6.220;2023-11-21T12:13:10;20.43;;;7.87;;
74904;SDS011;63465;50.862;6.220;2023-11-21T12:15:37;28.60;;;8.10;;
74904;SDS011;63465;50.862;6.220;2023-11-21T12:18:03;27.90;;;7.07;;
74904;SDS011;63465;50.862;6.220;2023-11-21T12:20:29;19.73;;;8.40;;
74904;SDS011;63465;50.862;6.220;2023-11-21T12:22:59;18.47;;;8.00;;
74904;SDS011;63465;50.862;6.220;2023-11-21T12:25:26;17.80;;;7.03;;
74904;SDS011;63465;50.862;6.220;2023-11-21T12:27:57;23.73;;;7.53;;
74904;SDS011;63465;50.862;6.220;2023-11-21T12:30:24;25.37;;;8.73;;
74904;SDS011;63465;50.862;6.220;2023-11-21T12:32:53;19.37;;;8.53;;
74904;SDS011;63465;50.862;6.220;2023-11-21T12:35:21;21.97;;;8.97;;
74904;SDS011;63465;50.862;6.220;2023-11-21T12:37:49;19.63;;;9.03;;
74904;SDS011;63465;50.862;6.220;2023-11-21T12:40:15;19.10;;;7.97;;
74904;SDS011;63465;50.862;6.220;2023-11-21T12:42:42;19.60;;;9.17;;
74904;SDS011;63465;50.862;6.220;2023-11-21T12:45:18;26.43;;;10.00;;
74904;SDS011;63465;50.862;6.220;2023-11-21T12:47:54;22.47;;;9.37;;
74904;SDS011;63465;50.862;6.220;2023-11-21T12:50:22;27.90;;;9.73;;
74904;SDS011;63465;50.862;6.220;2023-11-21T12:52:49;21.07;;;8.73;;
74904;SDS011;63465;50.862;6.220;2023-11-21T12:55:19;20.97;;;8.10;;
74904;SDS011;63465;50.862;6.220;2023-11-21T12:57:48;22.03;;;8.60;;
74904;SDS011;63465;50.862;6.220;2023-11-21T13:00:31;22.87;;;8.60;;
74904;SDS011;63465;50.862;6.220;2023-11-21T13:03:01;21.77;;;8.00;;
74904;SDS011;63465;50.862;6.220;2023-11-21T13:08:04;21.13;;;9.43;;
74904;SDS011;63465;50.862;6.220;2023-11-21T13:10:33;24.07;;;8.97;;
74904;SDS011;63465;50.862;6.220;2023-11-21T13:13:01;29.13;;;9.43;;
74904;SDS011;63465;50.862;6.220;2023-11-21T13:15:30;28.07;;;9.97;;
74904;SDS011;63465;50.862;6.220;2023-11-21T13:17:57;25.97;;;10.60;;
74904;SDS011;63465;50.862;6.220;2023-11-21T13:20:23;28.60;;;10.27;;
74904;SDS011;63465;50.862;6.220;2023-11-21T13:22:53;23.27;;;9.17;;
74904;SDS011;63465;50.862;6.220;2023-11-21T13:25:25;28.17;;;8.77;;
74904;SDS011;63465;50.862;6.220;2023-11-21T13:27:52;19.73;;;7.03;;
74904;SDS011;63465;50.862;6.220;2023-11-21T13:30:20;29.27;;;9.60;;
74904;SDS011;63465;50.862;6.220;2023-11-21T13:32:53;20.33;;;8.30;;
74904;SDS011;63465;50.862;6.220;2023-11-21T13:35:22;21.47;;;8.60;;
74904;SDS011;63465;50.862;6.220;2023-11-21T13:37:56;17.93;;;7.77;;
74904;SDS011;63465;50.862;6.220;2023-11-21T13:40:25;24.07;;;9.70;;
74904;SDS011;63465;50.862;6.220;2023-11-21T13:42:54;21.07;;;7.50;;
74904;SDS011;63465;50.862;6.220;2023-11-21T13:45:22;19.53;;;8.90;;
74904;SDS011;63465;50.862;6.220;2023-11-21T13:47:52;18.30;;;8.47;;
74904;SDS011;63465;50.862;6.220;2023-11-21T13:50:20;25.83;;;8.07;;
74904;SDS011;63465;50.862;6.220;2023-11-21T13:52:51;23.57;;;9.50;;
74904;SDS011;63465;50.862;6.220;2023-11-21T13:55:18;22.70;;;8.30;;
74904;SDS011;63465;50.862;6.220;2023-11-21T13:57:44;19.20;;;9.10;;
74904;SDS011;63465;50.862;6.220;2023-11-21T14:00:14;24.53;;;8.60;;
74904;SDS011;63465;50.862;6.220;2023-11-21T14:03:00;27.53;;;9.70;;
74904;SDS011;63465;50.862;6.220;2023-11-21T14:05:26;14.17;;;7.67;;
74904;SDS011;63465;50.862;6.220;2023-11-21T14:07:54;24.37;;;9.47;;
74904;SDS011;63465;50.862;6.220;2023-11-21T14:10:21;11.37;;;6.47;;
74904;SDS011;63465;50.862;6.220;2023-11-21T14:12:49;19.93;;;7.83;;
74904;SDS011;63465;50.862;6.220;2023-11-21T14:15:15;19.10;;;8.20;;
74904;SDS011;63465;50.862;6.220;2023-11-21T14:17:43;18.73;;;6.80;;
74904;SDS011;63465;50.862;6.220;2023-11-21T14:20:09;12.00;;;6.00;;
74904;SDS011;63465;50.862;6.220;2023-11-21T14:22:41;13.57;;;5.97;;
74904;SDS011;63465;50.862;6.220;2023-11-21T14:25:06;11.00;;;5.00;;
74904;SDS011;63465;50.862;6.220;2023-11-21T14:27:32;11.73;;;5.67;;
74904;SDS011;63465;50.862;6.220;2023-11-21T14:29:58;16.80;;;6.43;;
74904;SDS011;63465;50.862;6.220;2023-11-21T14:32:24;10.93;;;5.00;;
74904;SDS011;63465;50.862;6.220;2023-11-21T14:34:51;13.90;;;5.60;;
74904;SDS011;63465;50.862;6.220;2023-11-21T14:37:17;15.53;;;7.20;;
74904;SDS011;63465;50.862;6.220;2023-11-21T14:39:42;14.70;;;6.60;;
74904;SDS011;63465;50.862;6.220;2023-11-21T14:42:11;15.00;;;5.53;;